createdAt,value
2019-04-21T00:00:33.566Z,13.26
2019-04-21T00:03:25.619Z,13.23
2019-04-21T00:06:29.829Z,13.30
2019-04-21T00:09:24.279Z,13.21
2019-04-21T00:12:07.522Z,13.27
2019-04-21T00:14:47.158Z,13.31
2019-04-21T00:17:24.443Z,13.25
2019-04-21T00:20:20.422Z,13.33
2019-04-21T00:23:13.117Z,13.33
2019-04-21T00:25:57.652Z,13.31
2019-04-21T00:28:59.599Z,13.32
2019-04-21T00:31:38.153Z,13.12
2019-04-21T00:34:09.115Z,13.24
2019-04-21T00:37:08.320Z,13.15
2019-04-21T00:40:03.736Z,12.84
2019-04-21T00:42:48.436Z,12.80
2019-04-21T00:45:36.466Z,12.89
2019-04-21T00:48:32.923Z,12.75
2019-04-21T00:54:09.797Z,12.77
2019-04-21T00:56:56.940Z,12.70
2019-04-21T00:59:41.983Z,12.55
2019-04-21T01:02:32.993Z,12.51
2019-04-21T01:05:37.531Z,12.55
2019-04-21T01:08:05.110Z,12.56
2019-04-21T01:10:43.979Z,12.43
2019-04-21T01:13:44.027Z,12.36
2019-04-21T01:16:33.158Z,12.35
2019-04-21T01:19:12.368Z,12.33
2019-04-21T01:21:42.310Z,12.18
2019-04-21T01:24:33.035Z,12.26
2019-04-21T01:27:25.076Z,12.15
2019-04-21T01:30:26.541Z,12.06
2019-04-21T01:33:17.395Z,12.03
2019-04-21T01:35:58.069Z,12.03
2019-04-21T01:38:58.401Z,12.17
2019-04-21T01:41:38.914Z,12.08
2019-04-21T01:44:29.906Z,12.30
2019-04-21T01:47:06.047Z,12.05
2019-04-21T01:49:50.069Z,12.07
2019-04-21T01:52:50.241Z,11.98
2019-04-21T01:55:54.981Z,12.00
2019-04-21T01:58:42.817Z,11.89
2019-04-21T02:01:48.857Z,11.91
2019-04-21T02:04:30.386Z,11.97
2019-04-21T02:07:14.840Z,12.05
2019-04-21T02:10:05.253Z,12.00
2019-04-21T02:12:51.891Z,11.92
2019-04-21T02:15:59.353Z,11.95
2019-04-21T02:18:22.023Z,11.87
2019-04-21T02:21:00.385Z,11.79
2019-04-21T02:24:07.152Z,11.79
2019-04-21T02:26:45.687Z,11.80
2019-04-21T02:29:40.666Z,11.76
2019-04-21T02:32:35.710Z,11.66
2019-04-21T02:35:34.115Z,11.63
2019-04-21T02:38:11.796Z,11.59
2019-04-21T02:40:51.370Z,11.54
2019-04-21T02:43:46.139Z,11.54
2019-04-21T02:46:42.112Z,11.48
2019-04-21T02:52:11.649Z,11.31
2019-04-21T02:55:01.205Z,11.26
2019-04-21T03:00:36.541Z,11.25
2019-04-21T03:03:36.302Z,11.32
2019-04-21T03:06:50.340Z,11.21
2019-04-21T03:09:30.978Z,11.19
2019-04-21T03:15:25.169Z,11.19
2019-04-21T03:17:59.670Z,11.09
2019-04-21T03:23:36.360Z,11.01
2019-04-21T03:29:11.934Z,11.00
2019-04-21T03:32:14.315Z,11.00
2019-04-21T03:37:35.400Z,11.11
2019-04-21T03:40:26.541Z,11.17
2019-04-21T03:43:04.418Z,11.16
2019-04-21T03:48:46.793Z,11.27
2019-04-21T03:51:25.990Z,11.16
2019-04-21T04:00:00.799Z,11.25
2019-04-21T04:03:12.963Z,11.31
2019-04-21T04:09:03.144Z,11.15
2019-04-21T04:11:50.434Z,11.10
2019-04-21T04:14:33.469Z,11.11
2019-04-21T04:17:16.871Z,11.14
2019-04-21T04:20:25.833Z,11.09
2019-04-21T04:25:27.414Z,11.13
2019-04-21T04:28:38.411Z,11.16
2019-04-21T04:31:25.464Z,11.15
2019-04-21T04:34:24.787Z,11.20
2019-04-21T04:37:15.206Z,11.18
2019-04-21T04:43:03.535Z,11.20
2019-04-21T04:48:11.116Z,11.19
2019-04-21T04:51:22.973Z,11.22
2019-04-21T04:53:47.258Z,11.22
2019-04-21T04:56:38.919Z,11.21
2019-04-21T05:05:13.806Z,11.31
2019-04-21T05:08:08.489Z,11.40
2019-04-21T05:10:54.461Z,11.46
2019-04-21T05:13:26.158Z,11.53
2019-04-21T05:16:27.824Z,11.59
2019-04-21T05:19:18.122Z,11.72
2019-04-21T05:21:45.478Z,11.77
2019-04-21T05:24:30.325Z,11.76
2019-04-21T05:27:29.409Z,11.84
2019-04-21T05:30:49.023Z,11.84
2019-04-21T05:33:39.983Z,11.99
2019-04-21T05:36:52.121Z,12.04
2019-04-21T05:39:45.154Z,12.46
2019-04-21T05:42:30.469Z,13.42
2019-04-21T05:45:25.467Z,13.82
2019-04-21T05:48:33.048Z,13.52
2019-04-21T05:51:10.634Z,13.75
2019-04-21T05:54:08.801Z,14.04
2019-04-21T05:56:48.833Z,13.98
2019-04-21T05:59:40.058Z,14.02
2019-04-21T06:02:24.251Z,13.69
2019-04-21T06:08:02.783Z,13.98
2019-04-21T06:13:42.796Z,14.48
2019-04-21T06:16:28.658Z,14.15
2019-04-21T06:19:17.144Z,15.42
2019-04-21T06:21:57.439Z,15.54
2019-04-21T06:25:18.685Z,15.17
2019-04-21T06:27:34.083Z,15.24
2019-04-21T06:30:24.006Z,15.78
2019-04-21T06:33:08.153Z,15.49
2019-04-21T06:39:11.320Z,15.55
2019-04-21T06:41:54.383Z,16.63
2019-04-21T06:44:53.745Z,16.68
2019-04-21T06:47:39.458Z,16.43
2019-04-21T06:50:24.346Z,16.57
2019-04-21T06:53:06.822Z,16.81
2019-04-21T06:55:55.980Z,16.76
2019-04-21T06:58:43.968Z,16.70
2019-04-21T07:01:36.800Z,16.75
2019-04-21T07:07:04.832Z,17.02
2019-04-21T07:09:57.531Z,16.81
2019-04-21T07:12:43.014Z,16.82
2019-04-21T07:15:35.739Z,17.24
2019-04-21T07:18:20.269Z,17.87
2019-04-21T07:21:06.503Z,18.52
2019-04-21T07:23:59.132Z,17.95
2019-04-21T07:26:42.646Z,17.90
2019-04-21T07:29:34.836Z,18.63
2019-04-21T07:32:15.333Z,18.96
2019-04-21T07:35:09.667Z,18.92
2019-04-21T07:37:53.517Z,19.53
2019-04-21T07:40:36.542Z,19.99
2019-04-21T07:43:22.159Z,19.91
2019-04-21T07:46:06.491Z,19.53
2019-04-21T07:49:06.566Z,19.57
2019-04-21T07:52:26.131Z,19.25
2019-04-21T07:57:52.887Z,20.22
2019-04-21T08:03:34.966Z,20.68
2019-04-21T08:06:24.124Z,20.66
2019-04-21T08:09:07.428Z,21.17
2019-04-21T08:11:48.666Z,21.28
2019-04-21T08:14:43.929Z,21.02
2019-04-21T08:17:30.796Z,21.66
2019-04-21T08:20:12.265Z,20.97
2019-04-21T08:23:04.706Z,21.91
2019-04-21T08:26:03.756Z,21.70
2019-04-21T08:28:42.661Z,21.66
2019-04-21T08:31:34.385Z,23.16
2019-04-21T08:34:21.526Z,24.81
2019-04-21T08:37:04.034Z,21.66
2019-04-21T08:40:04.945Z,23.03
2019-04-21T08:42:39.969Z,23.13
2019-04-21T08:45:29.430Z,22.61
2019-04-21T08:48:16.955Z,22.76
2019-04-21T08:51:14.185Z,22.59
2019-04-21T08:53:56.460Z,21.36
2019-04-21T08:57:05.496Z,22.34
2019-04-21T09:00:06.499Z,24.00
2019-04-21T09:03:02.540Z,24.49
2019-04-21T09:05:42.421Z,24.68
2019-04-21T09:08:37.641Z,25.56
2019-04-21T09:11:17.613Z,25.28
2019-04-21T09:14:13.159Z,25.61
2019-04-21T09:16:56.738Z,23.08
2019-04-21T09:22:35.837Z,23.45
2019-04-21T09:25:28.626Z,24.94
2019-04-21T09:28:16.034Z,23.59
2019-04-21T09:30:49.953Z,24.04
2019-04-21T09:33:33.456Z,25.24
2019-04-21T09:36:19.934Z,24.03
2019-04-21T09:39:16.572Z,23.89
2019-04-21T09:42:02.763Z,22.60
2019-04-21T09:44:51.964Z,23.28
2019-04-21T09:47:45.977Z,25.11
2019-04-21T09:50:24.195Z,24.28
2019-04-21T09:53:16.703Z,25.35
2019-04-21T09:56:04.882Z,24.84
2019-04-21T09:58:52.180Z,22.89
2019-04-21T10:01:50.103Z,23.02
2019-04-21T10:04:23.528Z,23.34
2019-04-21T10:07:21.910Z,22.28
2019-04-21T10:09:59.904Z,22.23
2019-04-21T10:12:56.278Z,22.50
2019-04-21T10:15:44.173Z,23.09
2019-04-21T10:18:33.704Z,23.04
2019-04-21T10:21:20.107Z,23.78
2019-04-21T10:24:06.362Z,23.12
2019-04-21T10:26:53.379Z,22.64
2019-04-21T10:29:43.105Z,22.15
2019-04-21T10:32:36.444Z,23.87
2019-04-21T10:35:35.460Z,22.98
2019-04-21T10:38:30.405Z,23.44
2019-04-21T10:41:10.048Z,24.06
2019-04-21T10:44:00.992Z,23.18
2019-04-21T10:46:48.944Z,23.27
2019-04-21T10:49:35.019Z,24.20
2019-04-21T10:52:30.960Z,23.73
2019-04-21T10:55:32.097Z,24.08
2019-04-21T10:58:26.516Z,23.49
2019-04-21T11:01:31.490Z,23.14
2019-04-21T11:04:33.737Z,23.38
2019-04-21T11:08:05.160Z,24.03
2019-04-21T11:10:41.286Z,23.70
2019-04-21T11:13:32.634Z,25.63
2019-04-21T11:16:19.471Z,25.31
2019-04-21T11:19:06.295Z,24.54
2019-04-21T11:22:04.956Z,26.33
2019-04-21T11:25:05.203Z,25.17
2019-04-21T11:27:51.384Z,23.68
2019-04-21T11:30:38.023Z,24.65
2019-04-21T11:33:24.895Z,24.76
2019-04-21T11:36:11.273Z,24.01
2019-04-21T11:39:14.907Z,23.93
2019-04-21T11:41:50.295Z,25.37
2019-04-21T11:44:37.216Z,25.12
2019-04-21T11:47:28.026Z,25.97
2019-04-21T11:50:15.074Z,25.39
2019-04-21T11:53:01.204Z,24.47
2019-04-21T11:55:50.157Z,24.22
2019-04-21T11:58:39.508Z,24.89
2019-04-21T12:01:25.789Z,24.15
2019-04-21T12:04:13.912Z,23.33
2019-04-21T12:06:59.944Z,24.26
2019-04-21T12:09:46.018Z,24.53
2019-04-21T12:12:31.471Z,24.36
2019-04-21T12:15:17.188Z,24.08
2019-04-21T12:18:05.915Z,24.59
2019-04-21T12:20:53.629Z,25.44
2019-04-21T12:23:45.687Z,25.64
2019-04-21T12:26:33.853Z,24.87
2019-04-21T12:29:20.819Z,25.69
2019-04-21T12:32:26.329Z,25.19
2019-04-21T12:35:13.148Z,24.61
2019-04-21T12:38:02.650Z,24.32
2019-04-21T12:40:50.778Z,24.36
2019-04-21T12:43:38.948Z,26.87
2019-04-21T12:46:31.870Z,25.57
2019-04-21T12:49:17.930Z,24.18
2019-04-21T12:52:38.200Z,25.40
2019-04-21T12:55:30.622Z,25.14
2019-04-21T12:58:13.101Z,24.45
2019-04-21T13:01:03.079Z,24.91
2019-04-21T13:03:52.953Z,26.22
2019-04-21T13:06:39.456Z,25.13
2019-04-21T13:09:28.456Z,26.05
2019-04-21T13:12:13.131Z,25.51
2019-04-21T13:15:06.533Z,26.89
2019-04-21T13:17:52.496Z,25.98
2019-04-21T13:20:38.274Z,25.03
2019-04-21T13:23:24.959Z,24.59
2019-04-21T13:26:13.086Z,24.60
2019-04-21T13:28:58.963Z,26.59
2019-04-21T13:31:47.963Z,25.85
2019-04-21T13:34:35.805Z,25.85
2019-04-21T13:37:25.658Z,26.56
2019-04-21T13:40:56.942Z,25.68
2019-04-21T13:43:33.044Z,24.90
2019-04-21T13:46:18.481Z,24.84
2019-04-21T13:49:05.254Z,24.84
2019-04-21T13:51:51.986Z,27.53
2019-04-21T13:54:39.877Z,26.42
2019-04-21T13:57:26.307Z,26.99
2019-04-21T14:00:13.432Z,26.99
2019-04-21T14:03:00.731Z,26.16
2019-04-21T14:05:48.514Z,25.15
2019-04-21T14:08:34.424Z,27.08
2019-04-21T14:11:19.936Z,27.09
2019-04-21T14:14:06.087Z,25.38
2019-04-21T14:16:52.100Z,25.63
2019-04-21T14:19:41.540Z,25.37
2019-04-21T14:22:28.314Z,25.56
2019-04-21T14:25:15.385Z,27.37
2019-04-21T14:28:04.005Z,25.82
2019-04-21T14:30:50.468Z,25.24
2019-04-21T14:33:36.321Z,25.19
2019-04-21T14:36:23.072Z,25.76
2019-04-21T14:39:10.581Z,26.73
2019-04-21T14:41:56.453Z,25.01
2019-04-21T14:44:42.965Z,27.01
2019-04-21T14:47:46.270Z,27.01
2019-04-21T14:50:52.478Z,26.55
2019-04-21T14:53:59.767Z,25.28
2019-04-21T14:56:47.300Z,26.53
2019-04-21T14:59:37.185Z,25.62
2019-04-21T15:02:25.532Z,25.70
2019-04-21T15:05:13.402Z,25.58
2019-04-21T15:08:01.358Z,25.58
2019-04-21T15:10:47.490Z,25.55
2019-04-21T15:13:33.482Z,25.14
2019-04-21T15:16:20.758Z,24.57
2019-04-21T15:19:06.867Z,24.77
2019-04-21T15:21:52.443Z,24.59
2019-04-21T15:24:40.433Z,24.93
2019-04-21T15:27:27.486Z,24.37
2019-04-21T15:30:14.414Z,24.89
2019-04-21T15:33:06.373Z,24.70
2019-04-21T15:35:55.382Z,24.37
2019-04-21T15:38:45.724Z,24.36
2019-04-21T15:41:36.501Z,24.37
2019-04-21T15:44:23.236Z,24.36
2019-04-21T15:47:10.244Z,24.49
2019-04-21T15:50:04.657Z,24.35
2019-04-21T15:52:45.656Z,24.47
2019-04-21T15:55:41.267Z,24.78
2019-04-21T15:59:02.240Z,24.61
2019-04-21T16:02:00.846Z,24.17
2019-04-21T16:04:48.599Z,24.35
2019-04-21T16:07:36.058Z,24.20
2019-04-21T16:10:34.350Z,24.25
2019-04-21T16:13:11.817Z,24.35
2019-04-21T16:15:58.693Z,24.26
2019-04-21T16:18:45.980Z,24.15
2019-04-21T16:21:36.700Z,24.29
2019-04-21T16:24:21.252Z,24.11
2019-04-21T16:27:10.726Z,23.86
2019-04-21T16:29:57.632Z,24.18
2019-04-21T16:32:43.997Z,24.01
2019-04-21T16:35:31.692Z,24.00
2019-04-21T16:38:19.620Z,23.98
2019-04-21T16:41:09.193Z,23.61
2019-04-21T16:43:59.087Z,23.66
2019-04-21T16:46:45.452Z,23.58
2019-04-21T16:49:31.810Z,23.68
2019-04-21T16:52:38.386Z,23.55
2019-04-21T16:55:30.782Z,23.39
2019-04-21T16:58:40.924Z,23.62
2019-04-21T17:01:31.274Z,23.43
2019-04-21T17:04:18.157Z,23.47
2019-04-21T17:07:05.184Z,23.47
2019-04-21T17:09:52.624Z,23.36
2019-04-21T17:12:39.537Z,23.27
2019-04-21T17:15:51.797Z,23.29
2019-04-21T17:18:43.517Z,23.16
2019-04-21T17:21:19.256Z,23.27
2019-04-21T17:24:10.612Z,23.10
2019-04-21T17:27:00.904Z,22.87
2019-04-21T17:29:48.630Z,22.91
2019-04-21T17:32:38.773Z,22.80
2019-04-21T17:35:22.874Z,22.73
2019-04-21T17:38:10.274Z,22.71
2019-04-21T17:41:09.377Z,22.74
2019-04-21T17:43:43.893Z,22.57
2019-04-21T17:46:38.900Z,22.51
2019-04-21T17:49:18.866Z,22.37
2019-04-21T17:52:36.677Z,22.34
2019-04-21T17:55:27.295Z,22.27
2019-04-21T17:58:22.086Z,22.14
2019-04-21T18:01:20.994Z,22.14
2019-04-21T18:04:14.016Z,22.03
2019-04-21T18:06:59.649Z,21.99
2019-04-21T18:10:00.155Z,21.90
2019-04-21T18:12:38.806Z,21.87
2019-04-21T18:15:29.105Z,21.82
2019-04-21T18:18:00.965Z,21.65
2019-04-21T18:20:54.988Z,21.62
2019-04-21T18:23:53.001Z,21.56
2019-04-21T18:26:41.728Z,21.38
2019-04-21T18:29:23.467Z,21.29
2019-04-21T18:32:10.467Z,21.21
2019-04-21T18:35:30.199Z,21.10
2019-04-21T18:38:24.364Z,21.04
2019-04-21T18:41:05.688Z,20.74
2019-04-21T18:44:21.277Z,20.69
2019-04-21T18:47:31.527Z,20.37
2019-04-21T18:50:19.549Z,20.27
2019-04-21T18:53:24.042Z,20.20
2019-04-21T18:56:05.297Z,20.11
2019-04-21T18:58:48.239Z,19.91
2019-04-21T19:01:36.680Z,19.74
2019-04-21T19:04:28.577Z,19.65
2019-04-21T19:07:25.519Z,19.55
2019-04-21T19:10:21.986Z,19.39
2019-04-21T19:13:28.244Z,19.30
2019-04-21T19:16:19.243Z,19.49
2019-04-21T19:19:18.493Z,19.33
2019-04-21T19:21:24.532Z,19.19
2019-04-21T19:24:26.322Z,19.21
2019-04-21T19:27:11.722Z,19.11
2019-04-21T19:30:08.563Z,19.12
2019-04-21T19:32:41.300Z,18.93
2019-04-21T19:35:14.912Z,18.82
2019-04-21T19:38:08.158Z,18.85
2019-04-21T19:41:07.494Z,18.79
2019-04-21T19:43:57.887Z,18.73
2019-04-21T19:46:38.295Z,18.69
2019-04-21T19:49:36.776Z,18.79
2019-04-21T19:52:11.002Z,18.84
2019-04-21T19:54:52.577Z,18.73
2019-04-21T19:57:38.882Z,18.72
2019-04-21T20:00:26.679Z,18.76
2019-04-21T20:03:14.522Z,18.69
2019-04-21T20:06:10.778Z,18.69
2019-04-21T20:09:08.380Z,18.59
2019-04-21T20:11:50.069Z,18.50
2019-04-21T20:17:35.009Z,18.35
2019-04-21T20:20:04.017Z,18.32
2019-04-21T20:22:51.916Z,18.26
2019-04-21T20:25:45.706Z,18.25
2019-04-21T20:28:38.823Z,18.21
2019-04-21T20:31:29.218Z,18.16
2019-04-21T20:34:30.331Z,18.05
2019-04-21T20:37:07.775Z,17.98
2019-04-21T20:39:48.277Z,17.90
2019-04-21T20:42:42.794Z,17.87
2019-04-21T20:45:34.514Z,17.77
2019-04-21T20:48:15.309Z,17.73
2019-04-21T20:51:24.002Z,17.60
2019-04-21T20:53:53.712Z,17.60
2019-04-21T20:56:45.241Z,17.52
2019-04-21T20:59:28.679Z,17.46
2019-04-21T21:02:19.978Z,17.45
2019-04-21T21:05:00.611Z,17.49
2019-04-21T21:08:03.563Z,17.41
2019-04-21T21:10:45.804Z,17.43
2019-04-21T21:13:37.860Z,17.38
2019-04-21T21:16:30.770Z,17.29
2019-04-21T21:19:18.149Z,17.23
2019-04-21T21:21:56.360Z,17.19
2019-04-21T21:24:46.350Z,17.04
2019-04-21T21:27:31.913Z,17.02
2019-04-21T21:30:18.651Z,16.91
2019-04-21T21:33:15.345Z,16.86
2019-04-21T21:35:56.629Z,16.78
2019-04-21T21:38:50.016Z,16.69
2019-04-21T21:41:24.445Z,16.69
2019-04-21T21:44:09.185Z,16.63
2019-04-21T21:47:00.566Z,16.57
2019-04-21T21:49:53.765Z,16.62
2019-04-21T21:52:39.963Z,16.53
2019-04-21T21:55:15.928Z,16.50
2019-04-21T21:58:07.931Z,16.43
2019-04-21T22:00:58.575Z,16.43
2019-04-21T22:03:46.538Z,16.32
2019-04-21T22:06:44.636Z,16.32
2019-04-21T22:09:19.972Z,16.19
2019-04-21T22:12:07.215Z,16.13
2019-04-21T22:14:55.542Z,16.09
2019-04-21T22:17:54.301Z,16.03
2019-04-21T22:20:48.594Z,15.97
2019-04-21T22:23:29.481Z,15.92
2019-04-21T22:26:05.434Z,15.93
2019-04-21T22:28:51.840Z,15.94
2019-04-21T22:31:40.762Z,15.83
2019-04-21T22:34:30.241Z,15.79
2019-04-21T22:37:30.717Z,15.73
2019-04-21T22:40:13.743Z,15.67
2019-04-21T22:42:59.290Z,15.71
2019-04-21T22:45:37.600Z,15.64
2019-04-21T22:48:28.272Z,15.68
2019-04-21T22:51:20.491Z,15.57
2019-04-21T22:54:01.431Z,15.50
2019-04-21T22:56:56.813Z,15.44
2019-04-21T22:59:35.650Z,15.44
2019-04-21T23:02:28.577Z,15.41
2019-04-21T23:05:15.609Z,15.45
2019-04-21T23:08:03.102Z,15.41
2019-04-21T23:10:49.684Z,15.42
2019-04-21T23:13:36.283Z,15.35
2019-04-21T23:16:28.022Z,15.30
2019-04-21T23:19:19.982Z,15.26
2019-04-21T23:22:17.314Z,15.17
2019-04-21T23:25:03.421Z,15.08
2019-04-21T23:27:55.133Z,15.07
2019-04-21T23:30:45.925Z,15.05
2019-04-21T23:33:12.044Z,14.98
2019-04-21T23:36:03.674Z,14.99
2019-04-21T23:38:47.254Z,15.00
2019-04-21T23:41:37.329Z,15.00
2019-04-21T23:44:20.387Z,14.99
2019-04-21T23:47:10.229Z,14.98
2019-04-21T23:50:03.711Z,14.91
2019-04-21T23:52:41.741Z,14.92
2019-04-21T23:55:27.526Z,14.84
2019-04-21T23:58:21.387Z,14.85
